Terminal Aerodrome Forecast
Issued by NWS

Home | Current Version | Previous Version | Text Only | Print | Product List | Glossary On
Versions: 1 2 3 4 5 6 7 8 9 10 11 12 13 14 15
000
FTUS41 KBGM 201120
TAFITH
TAF
KITH 201120Z 2012/2112 18010KT P6SM OVC015
      TEMPO 2012/2014 5SM -SHRA BR SCT015 OVC025
     FM201400 33008KT P6SM OVC012
      TEMPO 2014/2016 OVC008
     FM202000 32008KT P6SM BKN035
     FM202300 32005KT P6SM SKC
     FM210400 VRB03KT P6SM SKC
      TEMPO 2109/2112 3SM BR=

USA.gov is the U.S. government's official web portal to all federal, state and local government web resources and services.